sensor_id;sensor_type;location;lat;lon;timestamp;temperature;humidity
9662;DHT22;24982;52.344;12.990;2023-05-13T00:03:18;17.40;83.70
9662;DHT22;24982;52.344;12.990;2023-05-13T00:06:20;17.30;85.90
9662;DHT22;24982;52.344;12.990;2023-05-13T00:09:22;17.20;87.00
9662;DHT22;24982;52.344;12.990;2023-05-13T00:12:24;17.10;86.20
9662;DHT22;24982;52.344;12.990;2023-05-13T00:15:27;17.10;86.00
9662;DHT22;24982;52.344;12.990;2023-05-13T00:18:30;17.10;85.30
9662;DHT22;24982;52.344;12.990;2023-05-13T00:21:33;17.10;84.50
9662;DHT22;24982;52.344;12.990;2023-05-13T00:24:35;17.10;85.00
9662;DHT22;24982;52.344;12.990;2023-05-13T00:27:38;17.10;86.20
9662;DHT22;24982;52.344;12.990;2023-05-13T00:30:40;17.10;87.20
9662;DHT22;24982;52.344;12.990;2023-05-13T00:33:45;17.00;84.80
9662;DHT22;24982;52.344;12.990;2023-05-13T00:36:47;17.00;84.70
9662;DHT22;24982;52.344;12.990;2023-05-13T00:39:49;16.90;84.50
9662;DHT22;24982;52.344;12.990;2023-05-13T00:42:52;16.90;86.10
9662;DHT22;24982;52.344;12.990;2023-05-13T00:45:55;16.90;87.00
9662;DHT22;24982;52.344;12.990;2023-05-13T00:49:03;16.90;86.30
9662;DHT22;24982;52.344;12.990;2023-05-13T00:52:05;16.70;86.40
9662;DHT22;24982;52.344;12.990;2023-05-13T00:55:09;16.80;87.90
9662;DHT22;24982;52.344;12.990;2023-05-13T00:58:11;16.80;85.60
9662;DHT22;24982;52.344;12.990;2023-05-13T01:01:25;16.70;87.20
9662;DHT22;24982;52.344;12.990;2023-05-13T01:04:39;16.80;86.90
9662;DHT22;24982;52.344;12.990;2023-05-13T01:07:48;16.80;88.00
9662;DHT22;24982;52.344;12.990;2023-05-13T01:10:56;16.70;86.60
9662;DHT22;24982;52.344;12.990;2023-05-13T01:14:02;16.70;87.10
9662;DHT22;24982;52.344;12.990;2023-05-13T01:17:11;16.60;87.40
9662;DHT22;24982;52.344;12.990;2023-05-13T01:20:17;16.60;87.00
9662;DHT22;24982;52.344;12.990;2023-05-13T01:23:23;16.60;86.00
9662;DHT22;24982;52.344;12.990;2023-05-13T01:26:25;16.60;88.20
9662;DHT22;24982;52.344;12.990;2023-05-13T01:29:28;16.60;87.70
9662;DHT22;24982;52.344;12.990;2023-05-13T01:32:36;16.70;84.70
9662;DHT22;24982;52.344;12.990;2023-05-13T01:35:39;16.70;86.70
9662;DHT22;24982;52.344;12.990;2023-05-13T01:38:45;16.60;87.10
9662;DHT22;24982;52.344;12.990;2023-05-13T01:41:48;16.50;87.50
9662;DHT22;24982;52.344;12.990;2023-05-13T01:44:50;16.50;88.30
9662;DHT22;24982;52.344;12.990;2023-05-13T01:47:52;16.50;88.90
9662;DHT22;24982;52.344;12.990;2023-05-13T01:50:55;16.50;86.10
9662;DHT22;24982;52.344;12.990;2023-05-13T01:53:59;16.50;87.10
9662;DHT22;24982;52.344;12.990;2023-05-13T01:57:02;16.50;87.80
9662;DHT22;24982;52.344;12.990;2023-05-13T02:00:05;16.50;86.50
9662;DHT22;24982;52.344;12.990;2023-05-13T02:03:15;16.40;86.90
9662;DHT22;24982;52.344;12.990;2023-05-13T02:06:16;16.40;88.60
9662;DHT22;24982;52.344;12.990;2023-05-13T02:09:21;16.40;88.30
9662;DHT22;24982;52.344;12.990;2023-05-13T02:12:23;16.40;88.80
9662;DHT22;24982;52.344;12.990;2023-05-13T02:15:26;16.30;89.20
9662;DHT22;24982;52.344;12.990;2023-05-13T02:18:28;16.30;90.30
9662;DHT22;24982;52.344;12.990;2023-05-13T02:21:31;16.30;88.40
9662;DHT22;24982;52.344;12.990;2023-05-13T02:24:34;16.30;88.00
9662;DHT22;24982;52.344;12.990;2023-05-13T02:27:42;16.30;91.00
9662;DHT22;24982;52.344;12.990;2023-05-13T02:30:44;16.30;88.00
9662;DHT22;24982;52.344;12.990;2023-05-13T02:33:46;16.30;87.60
9662;DHT22;24982;52.344;12.990;2023-05-13T02:36:48;16.30;87.30
9662;DHT22;24982;52.344;12.990;2023-05-13T02:39:51;16.30;87.50
9662;DHT22;24982;52.344;12.990;2023-05-13T02:42:53;16.30;87.20
9662;DHT22;24982;52.344;12.990;2023-05-13T02:46:04;16.50;86.60
9662;DHT22;24982;52.344;12.990;2023-05-13T02:49:07;16.20;87.80
9662;DHT22;24982;52.344;12.990;2023-05-13T02:52:09;16.20;88.10
9662;DHT22;24982;52.344;12.990;2023-05-13T02:55:13;16.10;88.40
9662;DHT22;24982;52.344;12.990;2023-05-13T02:58:16;16.10;87.10
9662;DHT22;24982;52.344;12.990;2023-05-13T03:01:18;16.10;88.90
9662;DHT22;24982;52.344;12.990;2023-05-13T03:04:20;16.10;88.40
9662;DHT22;24982;52.344;12.990;2023-05-13T03:07:23;16.10;87.40
9662;DHT22;24982;52.344;12.990;2023-05-13T03:10:27;16.00;87.20
9662;DHT22;24982;52.344;12.990;2023-05-13T03:13:29;16.00;87.00
9662;DHT22;24982;52.344;12.990;2023-05-13T03:16:31;16.00;87.00
9662;DHT22;24982;52.344;12.990;2023-05-13T03:19:35;15.90;90.00
9662;DHT22;24982;52.344;12.990;2023-05-13T03:22:38;16.00;89.50
9662;DHT22;24982;52.344;12.990;2023-05-13T03:25:42;15.90;88.10
9662;DHT22;24982;52.344;12.990;2023-05-13T03:28:44;16.00;90.50
9662;DHT22;24982;52.344;12.990;2023-05-13T03:31:47;16.00;89.50
9662;DHT22;24982;52.344;12.990;2023-05-13T03:34:49;16.00;89.50
9662;DHT22;24982;52.344;12.990;2023-05-13T03:37:51;15.90;90.50
9662;DHT22;24982;52.344;12.990;2023-05-13T03:40:55;15.90;90.00
9662;DHT22;24982;52.344;12.990;2023-05-13T03:43:57;15.90;90.00
9662;DHT22;24982;52.344;12.990;2023-05-13T03:46:59;15.90;88.30
9662;DHT22;24982;52.344;12.990;2023-05-13T03:50:02;15.90;88.90
9662;DHT22;24982;52.344;12.990;2023-05-13T03:53:11;15.90;89.50
9662;DHT22;24982;52.344;12.990;2023-05-13T03:56:17;15.80;89.80
9662;DHT22;24982;52.344;12.990;2023-05-13T03:59:19;15.90;88.20
9662;DHT22;24982;52.344;12.990;2023-05-13T04:02:21;15.80;88.80
9662;DHT22;24982;52.344;12.990;2023-05-13T04:05:23;15.80;90.10
9662;DHT22;24982;52.344;12.990;2023-05-13T04:08:26;15.90;90.00
9662;DHT22;24982;52.344;12.990;2023-05-13T04:11:30;15.80;88.60
9662;DHT22;24982;52.344;12.990;2023-05-13T04:14:32;15.90;90.40
9662;DHT22;24982;52.344;12.990;2023-05-13T04:17:34;15.80;88.60
9662;DHT22;24982;52.344;12.990;2023-05-13T04:20:36;15.80;89.60
9662;DHT22;24982;52.344;12.990;2023-05-13T04:23:39;15.80;88.90
9662;DHT22;24982;52.344;12.990;2023-05-13T04:26:42;15.90;89.70
9662;DHT22;24982;52.344;12.990;2023-05-13T04:29:44;15.80;88.80
9662;DHT22;24982;52.344;12.990;2023-05-13T04:32:48;15.80;89.20
9662;DHT22;24982;52.344;12.990;2023-05-13T04:35:50;15.80;89.10
9662;DHT22;24982;52.344;12.990;2023-05-13T04:38:52;15.80;89.10
9662;DHT22;24982;52.344;12.990;2023-05-13T04:41:57;15.80;88.80
9662;DHT22;24982;52.344;12.990;2023-05-13T04:44:59;15.80;89.80
9662;DHT22;24982;52.344;12.990;2023-05-13T04:48:01;15.70;89.90
9662;DHT22;24982;52.344;12.990;2023-05-13T04:51:03;15.80;89.60
9662;DHT22;24982;52.344;12.990;2023-05-13T04:54:06;15.70;89.80
9662;DHT22;24982;52.344;12.990;2023-05-13T04:57:09;15.80;90.30
9662;DHT22;24982;52.344;12.990;2023-05-13T05:00:12;15.80;90.00
9662;DHT22;24982;52.344;12.990;2023-05-13T05:03:16;15.80;89.60
9662;DHT22;24982;52.344;12.990;2023-05-13T05:06:18;15.80;89.60
9662;DHT22;24982;52.344;12.990;2023-05-13T05:09:22;15.80;88.60
9662;DHT22;24982;52.344;12.990;2023-05-13T05:12:27;15.80;89.90
9662;DHT22;24982;52.344;12.990;2023-05-13T05:15:30;15.80;90.00
9662;DHT22;24982;52.344;12.990;2023-05-13T05:18:35;15.80;90.10
9662;DHT22;24982;52.344;12.990;2023-05-13T05:21:39;15.80;89.60
9662;DHT22;24982;52.344;12.990;2023-05-13T05:24:41;15.80;88.60
9662;DHT22;24982;52.344;12.990;2023-05-13T05:27:45;15.90;90.00
9662;DHT22;24982;52.344;12.990;2023-05-13T05:30:47;15.90;90.00
9662;DHT22;24982;52.344;12.990;2023-05-13T05:33:56;15.90;90.00
9662;DHT22;24982;52.344;12.990;2023-05-13T05:36:58;16.00;89.50
9662;DHT22;24982;52.344;12.990;2023-05-13T05:40:01;16.00;89.60
9662;DHT22;24982;52.344;12.990;2023-05-13T05:43:06;16.00;89.50
9662;DHT22;24982;52.344;12.990;2023-05-13T05:46:09;16.10;89.70
9662;DHT22;24982;52.344;12.990;2023-05-13T05:49:12;16.10;90.20
9662;DHT22;24982;52.344;12.990;2023-05-13T05:52:14;16.10;90.00
9662;DHT22;24982;52.344;12.990;2023-05-13T05:55:16;16.20;90.10
9662;DHT22;24982;52.344;12.990;2023-05-13T05:58:19;16.20;89.30
9662;DHT22;24982;52.344;12.990;2023-05-13T06:01:21;16.30;89.80
9662;DHT22;24982;52.344;12.990;2023-05-13T06:04:23;16.40;88.40
9662;DHT22;24982;52.344;12.990;2023-05-13T06:07:26;16.40;89.00
9662;DHT22;24982;52.344;12.990;2023-05-13T06:10:28;16.40;89.80
9662;DHT22;24982;52.344;12.990;2023-05-13T06:13:33;16.50;87.90
9662;DHT22;24982;52.344;12.990;2023-05-13T06:16:35;16.60;88.90
9662;DHT22;24982;52.344;12.990;2023-05-13T06:19:37;16.70;88.60
9662;DHT22;24982;52.344;12.990;2023-05-13T06:22:39;16.70;89.00
9662;DHT22;24982;52.344;12.990;2023-05-13T06:25:41;16.80;87.40
9662;DHT22;24982;52.344;12.990;2023-05-13T06:28:44;16.80;87.30
9662;DHT22;24982;52.344;12.990;2023-05-13T06:31:46;16.80;87.80
9662;DHT22;24982;52.344;12.990;2023-05-13T06:34:49;16.90;87.40
9662;DHT22;24982;52.344;12.990;2023-05-13T06:37:52;16.90;88.60
9662;DHT22;24982;52.344;12.990;2023-05-13T06:40:54;17.00;90.00
9662;DHT22;24982;52.344;12.990;2023-05-13T06:44:05;17.10;89.30
9662;DHT22;24982;52.344;12.990;2023-05-13T06:47:12;17.20;89.50
9662;DHT22;24982;52.344;12.990;2023-05-13T06:50:17;17.30;89.50
9662;DHT22;24982;52.344;12.990;2023-05-13T06:53:19;17.30;88.00
9662;DHT22;24982;52.344;12.990;2023-05-13T06:56:21;17.30;89.30
9662;DHT22;24982;52.344;12.990;2023-05-13T06:59:25;17.30;88.40
9662;DHT22;24982;52.344;12.990;2023-05-13T07:02:26;17.40;90.00
9662;DHT22;24982;52.344;12.990;2023-05-13T07:05:29;17.40;88.60
9662;DHT22;24982;52.344;12.990;2023-05-13T07:08:31;17.40;89.10
9662;DHT22;24982;52.344;12.990;2023-05-13T07:11:33;17.50;90.00
9662;DHT22;24982;52.344;12.990;2023-05-13T07:14:36;17.70;90.50
9662;DHT22;24982;52.344;12.990;2023-05-13T07:17:38;17.90;88.00
9662;DHT22;24982;52.344;12.990;2023-05-13T07:20:40;17.90;86.40
9662;DHT22;24982;52.344;12.990;2023-05-13T07:23:42;17.90;85.10
9662;DHT22;24982;52.344;12.990;2023-05-13T07:26:44;18.00;88.80
9662;DHT22;24982;52.344;12.990;2023-05-13T07:29:47;18.20;80.10
9662;DHT22;24982;52.344;12.990;2023-05-13T07:32:49;18.20;82.10
9662;DHT22;24982;52.344;12.990;2023-05-13T07:35:51;18.20;82.30
9662;DHT22;24982;52.344;12.990;2023-05-13T07:38:53;18.30;83.80
9662;DHT22;24982;52.344;12.990;2023-05-13T07:41:55;18.20;79.60
9662;DHT22;24982;52.344;12.990;2023-05-13T07:44:59;18.50;77.30
9662;DHT22;24982;52.344;12.990;2023-05-13T07:48:01;18.60;74.40
9662;DHT22;24982;52.344;12.990;2023-05-13T07:51:04;18.70;76.70
9662;DHT22;24982;52.344;12.990;2023-05-13T07:54:07;18.60;76.00
9662;DHT22;24982;52.344;12.990;2023-05-13T07:57:09;18.80;74.30
9662;DHT22;24982;52.344;12.990;2023-05-13T08:00:13;19.00;71.00
9662;DHT22;24982;52.344;12.990;2023-05-13T08:03:16;19.10;70.70
9662;DHT22;24982;52.344;12.990;2023-05-13T08:06:18;19.20;69.90
9662;DHT22;24982;52.344;12.990;2023-05-13T08:09:20;19.40;68.80
9662;DHT22;24982;52.344;12.990;2023-05-13T08:12:22;19.40;71.60
9662;DHT22;24982;52.344;12.990;2023-05-13T08:15:32;19.50;68.40
9662;DHT22;24982;52.344;12.990;2023-05-13T08:18:34;19.60;69.90
9662;DHT22;24982;52.344;12.990;2023-05-13T08:21:36;19.70;66.90
9662;DHT22;24982;52.344;12.990;2023-05-13T08:24:38;19.80;66.80
9662;DHT22;24982;52.344;12.990;2023-05-13T08:27:43;19.90;66.70
9662;DHT22;24982;52.344;12.990;2023-05-13T08:30:46;20.00;67.10
9662;DHT22;24982;52.344;12.990;2023-05-13T08:33:48;20.20;68.80
9662;DHT22;24982;52.344;12.990;2023-05-13T08:36:50;20.40;65.80
9662;DHT22;24982;52.344;12.990;2023-05-13T08:39:52;20.50;67.60
9662;DHT22;24982;52.344;12.990;2023-05-13T08:42:56;20.60;66.90
9662;DHT22;24982;52.344;12.990;2023-05-13T08:46:03;20.70;71.30
9662;DHT22;24982;52.344;12.990;2023-05-13T08:49:05;20.90;68.90
9662;DHT22;24982;52.344;12.990;2023-05-13T08:52:09;20.90;69.10
9662;DHT22;24982;52.344;12.990;2023-05-13T08:55:16;21.20;64.90
9662;DHT22;24982;52.344;12.990;2023-05-13T08:58:19;21.30;65.10
9662;DHT22;24982;52.344;12.990;2023-05-13T09:01:23;21.30;66.50
9662;DHT22;24982;52.344;12.990;2023-05-13T09:04:26;21.30;68.00
9662;DHT22;24982;52.344;12.990;2023-05-13T09:07:29;21.50;68.60
9662;DHT22;24982;52.344;12.990;2023-05-13T09:10:31;21.60;67.90
9662;DHT22;24982;52.344;12.990;2023-05-13T09:13:34;21.80;66.00
9662;DHT22;24982;52.344;12.990;2023-05-13T09:16:37;21.80;65.30
9662;DHT22;24982;52.344;12.990;2023-05-13T09:19:41;22.00;65.30
9662;DHT22;24982;52.344;12.990;2023-05-13T09:22:46;22.10;67.00
9662;DHT22;24982;52.344;12.990;2023-05-13T09:25:48;22.20;64.70
9662;DHT22;24982;52.344;12.990;2023-05-13T09:29:19;22.40;66.30
9662;DHT22;24982;52.344;12.990;2023-05-13T09:32:21;22.30;64.50
9662;DHT22;24982;52.344;12.990;2023-05-13T09:35:23;22.40;66.10
9662;DHT22;24982;52.344;12.990;2023-05-13T09:38:26;22.40;66.30
9662;DHT22;24982;52.344;12.990;2023-05-13T09:41:30;22.30;64.00
9662;DHT22;24982;52.344;12.990;2023-05-13T09:44:34;22.40;66.30
9662;DHT22;24982;52.344;12.990;2023-05-13T09:47:37;22.60;66.20
9662;DHT22;24982;52.344;12.990;2023-05-13T09:50:46;22.90;67.20
9662;DHT22;24982;52.344;12.990;2023-05-13T09:53:49;23.10;64.10
9662;DHT22;24982;52.344;12.990;2023-05-13T09:56:57;23.50;68.90
9662;DHT22;24982;52.344;12.990;2023-05-13T10:00:03;23.40;65.20
9662;DHT22;24982;52.344;12.990;2023-05-13T10:03:11;23.40;65.40
9662;DHT22;24982;52.344;12.990;2023-05-13T10:06:15;23.50;62.90
9662;DHT22;24982;52.344;12.990;2023-05-13T10:09:17;23.50;62.50
9662;DHT22;24982;52.344;12.990;2023-05-13T10:12:24;23.70;62.10
9662;DHT22;24982;52.344;12.990;2023-05-13T10:18:30;24.20;65.50
9662;DHT22;24982;52.344;12.990;2023-05-13T10:21:32;24.20;66.40
9662;DHT22;24982;52.344;12.990;2023-05-13T10:24:37;24.50;63.40
9662;DHT22;24982;52.344;12.990;2023-05-13T10:27:41;24.40;62.60
9662;DHT22;24982;52.344;12.990;2023-05-13T10:30:45;24.40;63.90
9662;DHT22;24982;52.344;12.990;2023-05-13T10:33:51;24.70;61.20
9662;DHT22;24982;52.344;12.990;2023-05-13T10:37:05;25.00;62.80
9662;DHT22;24982;52.344;12.990;2023-05-13T10:40:47;25.00;61.60
9662;DHT22;24982;52.344;12.990;2023-05-13T10:43:56;24.90;58.80
9662;DHT22;24982;52.344;12.990;2023-05-13T10:47:00;24.70;59.90
9662;DHT22;24982;52.344;12.990;2023-05-13T10:50:07;24.70;63.40
9662;DHT22;24982;52.344;12.990;2023-05-13T10:53:23;25.00;60.00
9662;DHT22;24982;52.344;12.990;2023-05-13T10:56:26;25.10;60.00
9662;DHT22;24982;52.344;12.990;2023-05-13T10:59:29;25.30;59.50
9662;DHT22;24982;52.344;12.990;2023-05-13T11:02:36;25.50;58.40
9662;DHT22;24982;52.344;12.990;2023-05-13T11:05:40;25.70;56.80
9662;DHT22;24982;52.344;12.990;2023-05-13T11:08:44;25.70;56.00
9662;DHT22;24982;52.344;12.990;2023-05-13T11:11:47;25.80;58.10
9662;DHT22;24982;52.344;12.990;2023-05-13T11:14:49;25.90;58.50
9662;DHT22;24982;52.344;12.990;2023-05-13T11:17:57;26.00;56.10
9662;DHT22;24982;52.344;12.990;2023-05-13T11:21:01;26.10;58.40
9662;DHT22;24982;52.344;12.990;2023-05-13T11:24:05;25.90;55.70
9662;DHT22;24982;52.344;12.990;2023-05-13T11:27:15;25.80;54.40
9662;DHT22;24982;52.344;12.990;2023-05-13T11:30:21;25.90;54.80
9662;DHT22;24982;52.344;12.990;2023-05-13T11:37:09;26.10;55.00
9662;DHT22;24982;52.344;12.990;2023-05-13T11:40:20;26.20;53.80
9662;DHT22;24982;52.344;12.990;2023-05-13T11:43:22;26.30;55.00
9662;DHT22;24982;52.344;12.990;2023-05-13T11:46:24;26.50;53.60
9662;DHT22;24982;52.344;12.990;2023-05-13T11:49:46;26.40;58.40
9662;DHT22;24982;52.344;12.990;2023-05-13T11:52:52;26.80;53.70
9662;DHT22;24982;52.344;12.990;2023-05-13T11:55:54;26.90;53.10
9662;DHT22;24982;52.344;12.990;2023-05-13T11:59:12;27.10;56.20
9662;DHT22;24982;52.344;12.990;2023-05-13T12:02:15;27.30;53.20
9662;DHT22;24982;52.344;12.990;2023-05-13T12:05:18;27.10;60.40
9662;DHT22;24982;52.344;12.990;2023-05-13T12:08:20;27.20;55.70
9662;DHT22;24982;52.344;12.990;2023-05-13T12:11:22;27.00;55.50
9662;DHT22;24982;52.344;12.990;2023-05-13T12:14:24;27.00;53.20
9662;DHT22;24982;52.344;12.990;2023-05-13T12:17:28;26.90;54.50
9662;DHT22;24982;52.344;12.990;2023-05-13T12:20:32;27.00;53.80
9662;DHT22;24982;52.344;12.990;2023-05-13T12:23:37;27.00;54.50
9662;DHT22;24982;52.344;12.990;2023-05-13T12:26:40;27.10;54.10
9662;DHT22;24982;52.344;12.990;2023-05-13T12:29:42;27.20;57.70
9662;DHT22;24982;52.344;12.990;2023-05-13T12:32:44;27.30;59.70
9662;DHT22;24982;52.344;12.990;2023-05-13T12:35:49;27.20;57.00
9662;DHT22;24982;52.344;12.990;2023-05-13T12:38:56;26.90;55.60
9662;DHT22;24982;52.344;12.990;2023-05-13T12:41:58;26.50;55.80
9662;DHT22;24982;52.344;12.990;2023-05-13T12:45:01;26.50;57.40
9662;DHT22;24982;52.344;12.990;2023-05-13T12:48:04;26.60;55.90
9662;DHT22;24982;52.344;12.990;2023-05-13T12:51:07;26.80;57.50
9662;DHT22;24982;52.344;12.990;2023-05-13T12:54:09;26.80;56.60
9662;DHT22;24982;52.344;12.990;2023-05-13T12:57:11;26.80;56.90
9662;DHT22;24982;52.344;12.990;2023-05-13T13:00:16;26.90;57.00
9662;DHT22;24982;52.344;12.990;2023-05-13T13:03:18;26.80;54.10
9662;DHT22;24982;52.344;12.990;2023-05-13T13:06:21;26.70;55.00
9662;DHT22;24982;52.344;12.990;2023-05-13T13:09:23;26.90;57.40
9662;DHT22;24982;52.344;12.990;2023-05-13T13:12:25;26.90;56.30
9662;DHT22;24982;52.344;12.990;2023-05-13T13:15:27;26.90;56.10
9662;DHT22;24982;52.344;12.990;2023-05-13T13:18:29;26.90;53.30
9662;DHT22;24982;52.344;12.990;2023-05-13T13:21:33;26.90;55.20
9662;DHT22;24982;52.344;12.990;2023-05-13T13:24:34;26.90;52.70
9662;DHT22;24982;52.344;12.990;2023-05-13T13:27:36;26.90;53.10
9662;DHT22;24982;52.344;12.990;2023-05-13T13:30:38;26.90;55.80
9662;DHT22;24982;52.344;12.990;2023-05-13T13:33:47;26.70;53.50
9662;DHT22;24982;52.344;12.990;2023-05-13T13:36:56;26.30;54.10
9662;DHT22;24982;52.344;12.990;2023-05-13T13:40:21;26.30;55.80
9662;DHT22;24982;52.344;12.990;2023-05-13T13:43:23;26.50;54.20
9662;DHT22;24982;52.344;12.990;2023-05-13T13:46:25;26.30;52.60
9662;DHT22;24982;52.344;12.990;2023-05-13T13:49:27;26.40;54.70
9662;DHT22;24982;52.344;12.990;2023-05-13T13:52:31;26.50;54.60
9662;DHT22;24982;52.344;12.990;2023-05-13T13:55:33;26.70;53.20
9662;DHT22;24982;52.344;12.990;2023-05-13T13:58:35;26.50;52.70
9662;DHT22;24982;52.344;12.990;2023-05-13T14:01:37;26.40;50.90
9662;DHT22;24982;52.344;12.990;2023-05-13T14:04:39;26.30;52.60
9662;DHT22;24982;52.344;12.990;2023-05-13T14:07:43;26.30;53.00
9662;DHT22;24982;52.344;12.990;2023-05-13T14:10:45;26.50;53.30
9662;DHT22;24982;52.344;12.990;2023-05-13T14:13:47;26.70;52.70
9662;DHT22;24982;52.344;12.990;2023-05-13T14:16:49;26.80;54.10
9662;DHT22;24982;52.344;12.990;2023-05-13T14:19:52;27.00;54.70
9662;DHT22;24982;52.344;12.990;2023-05-13T14:22:56;26.90;52.70
9662;DHT22;24982;52.344;12.990;2023-05-13T14:25:58;26.80;53.50
9662;DHT22;24982;52.344;12.990;2023-05-13T14:29:00;26.90;53.60
9662;DHT22;24982;52.344;12.990;2023-05-13T14:32:02;26.80;54.50
9662;DHT22;24982;52.344;12.990;2023-05-13T14:35:06;26.90;57.30
9662;DHT22;24982;52.344;12.990;2023-05-13T14:38:09;26.70;56.40
9662;DHT22;24982;52.344;12.990;2023-05-13T14:41:11;26.50;55.90
9662;DHT22;24982;52.344;12.990;2023-05-13T14:44:19;26.40;56.10
9662;DHT22;24982;52.344;12.990;2023-05-13T14:47:21;26.30;56.20
9662;DHT22;24982;52.344;12.990;2023-05-13T14:50:23;26.20;54.30
9662;DHT22;24982;52.344;12.990;2023-05-13T14:53:26;26.20;55.50
9662;DHT22;24982;52.344;12.990;2023-05-13T14:56:32;26.10;54.70
9662;DHT22;24982;52.344;12.990;2023-05-13T14:59:34;26.00;54.50
9662;DHT22;24982;52.344;12.990;2023-05-13T15:02:36;26.10;56.90
9662;DHT22;24982;52.344;12.990;2023-05-13T15:05:39;26.10;55.80
9662;DHT22;24982;52.344;12.990;2023-05-13T15:08:42;26.00;54.00
9662;DHT22;24982;52.344;12.990;2023-05-13T15:11:44;26.00;56.60
9662;DHT22;24982;52.344;12.990;2023-05-13T15:14:50;25.90;54.80
9662;DHT22;24982;52.344;12.990;2023-05-13T15:17:52;25.70;54.30
9662;DHT22;24982;52.344;12.990;2023-05-13T15:20:54;25.50;56.80
9662;DHT22;24982;52.344;12.990;2023-05-13T15:23:58;25.40;53.80
9662;DHT22;24982;52.344;12.990;2023-05-13T15:27:00;25.30;55.00
9662;DHT22;24982;52.344;12.990;2023-05-13T15:30:03;25.30;53.90
9662;DHT22;24982;52.344;12.990;2023-05-13T15:33:05;25.20;53.60
9662;DHT22;24982;52.344;12.990;2023-05-13T15:36:07;25.20;55.60
9662;DHT22;24982;52.344;12.990;2023-05-13T15:39:11;25.10;54.40
9662;DHT22;24982;52.344;12.990;2023-05-13T15:42:16;25.00;55.00
9662;DHT22;24982;52.344;12.990;2023-05-13T15:45:18;24.90;55.70
9662;DHT22;24982;52.344;12.990;2023-05-13T15:48:20;25.00;53.90
9662;DHT22;24982;52.344;12.990;2023-05-13T15:51:22;24.70;54.80
9662;DHT22;24982;52.344;12.990;2023-05-13T15:54:25;24.60;55.80
9662;DHT22;24982;52.344;12.990;2023-05-13T15:57:27;24.50;54.30
9662;DHT22;24982;52.344;12.990;2023-05-13T16:00:29;24.40;55.90
9662;DHT22;24982;52.344;12.990;2023-05-13T16:03:31;24.20;56.00
9662;DHT22;24982;52.344;12.990;2023-05-13T16:06:33;24.10;57.00
9662;DHT22;24982;52.344;12.990;2023-05-13T16:09:37;23.90;57.30
9662;DHT22;24982;52.344;12.990;2023-05-13T16:12:39;23.80;57.20
9662;DHT22;24982;52.344;12.990;2023-05-13T16:15:41;23.70;57.80
9662;DHT22;24982;52.344;12.990;2023-05-13T16:18:43;23.70;55.30
9662;DHT22;24982;52.344;12.990;2023-05-13T16:21:45;23.50;62.70
9662;DHT22;24982;52.344;12.990;2023-05-13T16:24:48;23.20;66.30
9662;DHT22;24982;52.344;12.990;2023-05-13T16:27:50;22.90;67.50
9662;DHT22;24982;52.344;12.990;2023-05-13T16:30:52;22.50;70.10
9662;DHT22;24982;52.344;12.990;2023-05-13T16:33:55;22.40;70.30
9662;DHT22;24982;52.344;12.990;2023-05-13T16:36:57;22.10;71.60
9662;DHT22;24982;52.344;12.990;2023-05-13T16:43:03;21.50;91.90
9662;DHT22;24982;52.344;12.990;2023-05-13T16:46:05;21.60;84.80
9662;DHT22;24982;52.344;12.990;2023-05-13T16:49:07;21.50;84.40
9662;DHT22;24982;52.344;12.990;2023-05-13T16:52:09;21.60;83.00
9662;DHT22;24982;52.344;12.990;2023-05-13T16:55:12;21.60;82.10
9662;DHT22;24982;52.344;12.990;2023-05-13T16:58:14;21.50;82.10
9662;DHT22;24982;52.344;12.990;2023-05-13T17:01:16;21.50;80.00
9662;DHT22;24982;52.344;12.990;2023-05-13T17:04:19;21.50;79.60
9662;DHT22;24982;52.344;12.990;2023-05-13T17:07:21;21.50;79.00
9662;DHT22;24982;52.344;12.990;2023-05-13T17:10:27;21.40;75.60
9662;DHT22;24982;52.344;12.990;2023-05-13T17:13:29;21.40;75.20
9662;DHT22;24982;52.344;12.990;2023-05-13T17:16:31;21.30;75.00
9662;DHT22;24982;52.344;12.990;2023-05-13T17:19:33;21.30;75.30
9662;DHT22;24982;52.344;12.990;2023-05-13T17:22:35;21.30;75.10
9662;DHT22;24982;52.344;12.990;2023-05-13T17:25:39;21.20;74.30
9662;DHT22;24982;52.344;12.990;2023-05-13T17:28:42;21.20;75.90
9662;DHT22;24982;52.344;12.990;2023-05-13T17:31:44;21.10;75.50
9662;DHT22;24982;52.344;12.990;2023-05-13T17:34:48;21.10;77.50
9662;DHT22;24982;52.344;12.990;2023-05-13T17:37:50;21.20;76.70
9662;DHT22;24982;52.344;12.990;2023-05-13T17:40:54;21.20;78.20
9662;DHT22;24982;52.344;12.990;2023-05-13T17:43:56;21.20;77.70
9662;DHT22;24982;52.344;12.990;2023-05-13T17:46:58;21.20;75.90
9662;DHT22;24982;52.344;12.990;2023-05-13T17:50:00;21.20;76.10
9662;DHT22;24982;52.344;12.990;2023-05-13T17:53:02;21.20;76.00
9662;DHT22;24982;52.344;12.990;2023-05-13T17:56:06;21.20;76.70
9662;DHT22;24982;52.344;12.990;2023-05-13T17:59:10;21.20;76.40
9662;DHT22;24982;52.344;12.990;2023-05-13T18:02:12;21.10;76.00
9662;DHT22;24982;52.344;12.990;2023-05-13T18:05:14;21.10;78.40
9662;DHT22;24982;52.344;12.990;2023-05-13T18:08:16;21.00;79.80
9662;DHT22;24982;52.344;12.990;2023-05-13T18:11:19;20.90;90.00
9662;DHT22;24982;52.344;12.990;2023-05-13T18:14:22;20.80;89.90
9662;DHT22;24982;52.344;12.990;2023-05-13T18:17:24;20.80;89.60
9662;DHT22;24982;52.344;12.990;2023-05-13T18:20:26;20.60;88.70
9662;DHT22;24982;52.344;12.990;2023-05-13T18:23:28;20.60;90.40
9662;DHT22;24982;52.344;12.990;2023-05-13T18:26:35;20.50;89.60
9662;DHT22;24982;52.344;12.990;2023-05-13T18:29:37;20.40;88.80
9662;DHT22;24982;52.344;12.990;2023-05-13T18:35:41;20.20;82.40
9662;DHT22;24982;52.344;12.990;2023-05-13T18:38:43;20.20;83.70
9662;DHT22;24982;52.344;12.990;2023-05-13T18:41:48;20.20;84.90
9662;DHT22;24982;52.344;12.990;2023-05-13T18:44:50;20.20;81.90
9662;DHT22;24982;52.344;12.990;2023-05-13T18:47:52;20.10;82.70
9662;DHT22;24982;52.344;12.990;2023-05-13T18:50:54;20.10;83.50
9662;DHT22;24982;52.344;12.990;2023-05-13T18:54:02;20.10;82.70
9662;DHT22;24982;52.344;12.990;2023-05-13T18:57:06;20.00;83.30
9662;DHT22;24982;52.344;12.990;2023-05-13T19:00:08;20.00;82.00
9662;DHT22;24982;52.344;12.990;2023-05-13T19:03:11;19.90;82.40
9662;DHT22;24982;52.344;12.990;2023-05-13T19:06:13;19.90;85.30
9662;DHT22;24982;52.344;12.990;2023-05-13T19:09:21;19.90;86.40
9662;DHT22;24982;52.344;12.990;2023-05-13T19:12:25;19.80;86.90
9662;DHT22;24982;52.344;12.990;2023-05-13T19:15:27;19.90;87.50
9662;DHT22;24982;52.344;12.990;2023-05-13T19:18:30;19.90;90.20
9662;DHT22;24982;52.344;12.990;2023-05-13T19:21:32;19.80;87.90
9662;DHT22;24982;52.344;12.990;2023-05-13T19:24:34;19.80;91.00
9662;DHT22;24982;52.344;12.990;2023-05-13T19:27:38;19.80;88.70
9662;DHT22;24982;52.344;12.990;2023-05-13T19:30:40;19.70;91.10
9662;DHT22;24982;52.344;12.990;2023-05-13T19:33:45;19.70;91.80